sensor_id;sensor_type;location;lat;lon;timestamp;P1;durP1;ratioP1;P2;durP2;ratioP2
74630;SDS011;63138;55.082;38.804;2023-05-10T00:02:24;16.20;;;8.65;;
74630;SDS011;63138;55.082;38.804;2023-05-10T00:04:50;14.73;;;9.60;;
74630;SDS011;63138;55.082;38.804;2023-05-10T00:07:17;15.50;;;10.00;;
74630;SDS011;63138;55.082;38.804;2023-05-10T00:09:43;15.85;;;9.80;;
74630;SDS011;63138;55.082;38.804;2023-05-10T00:12:09;14.25;;;9.02;;
74630;SDS011;63138;55.082;38.804;2023-05-10T00:14:35;18.38;;;9.73;;
74630;SDS011;63138;55.082;38.804;2023-05-10T00:17:01;16.77;;;9.63;;
74630;SDS011;63138;55.082;38.804;2023-05-10T00:19:27;15.68;;;9.82;;
74630;SDS011;63138;55.082;38.804;2023-05-10T00:21:53;16.65;;;10.48;;
74630;SDS011;63138;55.082;38.804;2023-05-10T00:24:18;16.17;;;9.40;;
74630;SDS011;63138;55.082;38.804;2023-05-10T00:26:44;15.20;;;8.85;;
74630;SDS011;63138;55.082;38.804;2023-05-10T00:29:10;14.07;;;8.50;;
74630;SDS011;63138;55.082;38.804;2023-05-10T00:31:36;17.00;;;10.95;;
74630;SDS011;63138;55.082;38.804;2023-05-10T00:34:02;17.15;;;9.45;;
74630;SDS011;63138;55.082;38.804;2023-05-10T00:36:28;15.33;;;9.87;;
74630;SDS011;63138;55.082;38.804;2023-05-10T00:38:54;17.35;;;10.80;;
74630;SDS011;63138;55.082;38.804;2023-05-10T00:41:19;17.97;;;11.37;;
74630;SDS011;63138;55.082;38.804;2023-05-10T00:46:37;15.82;;;9.90;;
74630;SDS011;63138;55.082;38.804;2023-05-10T00:49:03;17.30;;;10.32;;
74630;SDS011;63138;55.082;38.804;2023-05-10T00:51:29;17.33;;;9.88;;
74630;SDS011;63138;55.082;38.804;2023-05-10T00:53:56;15.57;;;8.90;;
74630;SDS011;63138;55.082;38.804;2023-05-10T00:56:22;15.68;;;9.02;;
74630;SDS011;63138;55.082;38.804;2023-05-10T00:58:50;13.82;;;8.52;;
74630;SDS011;63138;55.082;38.804;2023-05-10T01:01:35;12.25;;;7.75;;
74630;SDS011;63138;55.082;38.804;2023-05-10T01:04:01;16.38;;;8.73;;
74630;SDS011;63138;55.082;38.804;2023-05-10T01:06:28;15.47;;;8.10;;
74630;SDS011;63138;55.082;38.804;2023-05-10T01:08:54;13.18;;;8.15;;
74630;SDS011;63138;55.082;38.804;2023-05-10T01:11:21;11.15;;;7.40;;
74630;SDS011;63138;55.082;38.804;2023-05-10T01:13:50;13.10;;;8.27;;
74630;SDS011;63138;55.082;38.804;2023-05-10T01:16:22;13.35;;;7.80;;
74630;SDS011;63138;55.082;38.804;2023-05-10T01:18:48;14.50;;;7.63;;
74630;SDS011;63138;55.082;38.804;2023-05-10T01:21:21;10.52;;;7.47;;
74630;SDS011;63138;55.082;38.804;2023-05-10T01:27:13;9.00;;;5.95;;
74630;SDS011;63138;55.082;38.804;2023-05-10T01:30:08;7.57;;;5.72;;
74630;SDS011;63138;55.082;38.804;2023-05-10T01:35:42;11.82;;;7.10;;
74630;SDS011;63138;55.082;38.804;2023-05-10T01:38:18;9.70;;;6.35;;
74630;SDS011;63138;55.082;38.804;2023-05-10T01:47:35;12.83;;;7.07;;
74630;SDS011;63138;55.082;38.804;2023-05-10T01:50:06;14.63;;;7.63;;
74630;SDS011;63138;55.082;38.804;2023-05-10T01:52:41;12.30;;;6.47;;
74630;SDS011;63138;55.082;38.804;2023-05-10T01:55:11;13.52;;;7.75;;
74630;SDS011;63138;55.082;38.804;2023-05-10T01:57:42;11.18;;;6.82;;
74630;SDS011;63138;55.082;38.804;2023-05-10T02:00:10;10.67;;;6.30;;
74630;SDS011;63138;55.082;38.804;2023-05-10T02:02:42;10.32;;;6.18;;
74630;SDS011;63138;55.082;38.804;2023-05-10T02:05:12;10.80;;;6.85;;
74630;SDS011;63138;55.082;38.804;2023-05-10T02:07:40;12.55;;;6.63;;
74630;SDS011;63138;55.082;38.804;2023-05-10T02:10:07;12.77;;;6.82;;
74630;SDS011;63138;55.082;38.804;2023-05-10T02:12:36;13.10;;;7.07;;
74630;SDS011;63138;55.082;38.804;2023-05-10T02:15:06;11.98;;;6.38;;
74630;SDS011;63138;55.082;38.804;2023-05-10T02:17:35;11.45;;;6.88;;
74630;SDS011;63138;55.082;38.804;2023-05-10T02:20:07;13.68;;;7.82;;
74630;SDS011;63138;55.082;38.804;2023-05-10T02:22:35;12.32;;;7.78;;
74630;SDS011;63138;55.082;38.804;2023-05-10T02:25:02;14.90;;;6.77;;
74630;SDS011;63138;55.082;38.804;2023-05-10T02:27:30;16.10;;;6.80;;
74630;SDS011;63138;55.082;38.804;2023-05-10T02:29:56;12.63;;;7.78;;
74630;SDS011;63138;55.082;38.804;2023-05-10T02:32:24;12.75;;;7.88;;
74630;SDS011;63138;55.082;38.804;2023-05-10T02:34:51;11.93;;;7.07;;
74630;SDS011;63138;55.082;38.804;2023-05-10T02:37:18;18.47;;;7.60;;
74630;SDS011;63138;55.082;38.804;2023-05-10T02:39:46;15.35;;;7.78;;
74630;SDS011;63138;55.082;38.804;2023-05-10T02:42:15;16.50;;;8.02;;
74630;SDS011;63138;55.082;38.804;2023-05-10T02:44:45;17.25;;;7.68;;
74630;SDS011;63138;55.082;38.804;2023-05-10T02:47:14;13.00;;;7.93;;
74630;SDS011;63138;55.082;38.804;2023-05-10T02:49:40;15.00;;;8.00;;
74630;SDS011;63138;55.082;38.804;2023-05-10T02:52:07;13.38;;;7.60;;
74630;SDS011;63138;55.082;38.804;2023-05-10T02:54:41;17.52;;;8.13;;
74630;SDS011;63138;55.082;38.804;2023-05-10T02:57:11;18.60;;;8.55;;
74630;SDS011;63138;55.082;38.804;2023-05-10T02:59:43;12.18;;;7.30;;
74630;SDS011;63138;55.082;38.804;2023-05-10T03:02:11;17.07;;;7.90;;
74630;SDS011;63138;55.082;38.804;2023-05-10T03:04:38;15.95;;;8.18;;
74630;SDS011;63138;55.082;38.804;2023-05-10T03:07:04;14.13;;;7.90;;
74630;SDS011;63138;55.082;38.804;2023-05-10T03:09:31;15.55;;;8.05;;
74630;SDS011;63138;55.082;38.804;2023-05-10T03:12:07;17.17;;;8.75;;
74630;SDS011;63138;55.082;38.804;2023-05-10T03:15:09;19.77;;;9.23;;
74630;SDS011;63138;55.082;38.804;2023-05-10T03:17:52;15.40;;;9.02;;
74630;SDS011;63138;55.082;38.804;2023-05-10T03:20:41;17.42;;;7.95;;
74630;SDS011;63138;55.082;38.804;2023-05-10T03:26:03;24.40;;;9.73;;
74630;SDS011;63138;55.082;38.804;2023-05-10T03:28:30;14.87;;;9.53;;
74630;SDS011;63138;55.082;38.804;2023-05-10T03:30:59;16.55;;;8.80;;
74630;SDS011;63138;55.082;38.804;2023-05-10T03:33:25;14.57;;;8.73;;
74630;SDS011;63138;55.082;38.804;2023-05-10T03:35:52;19.83;;;10.73;;
74630;SDS011;63138;55.082;38.804;2023-05-10T03:38:18;15.55;;;10.75;;
74630;SDS011;63138;55.082;38.804;2023-05-10T03:40:45;21.50;;;11.00;;
74630;SDS011;63138;55.082;38.804;2023-05-10T03:43:10;21.48;;;10.57;;
74630;SDS011;63138;55.082;38.804;2023-05-10T03:45:58;16.88;;;9.35;;
74630;SDS011;63138;55.082;38.804;2023-05-10T03:48:43;15.07;;;9.05;;
74630;SDS011;63138;55.082;38.804;2023-05-10T03:51:09;20.90;;;9.70;;
74630;SDS011;63138;55.082;38.804;2023-05-10T03:53:35;19.00;;;9.85;;
74630;SDS011;63138;55.082;38.804;2023-05-10T03:56:01;22.02;;;11.57;;
74630;SDS011;63138;55.082;38.804;2023-05-10T03:58:27;19.63;;;11.15;;
74630;SDS011;63138;55.082;38.804;2023-05-10T04:00:53;20.90;;;10.80;;
74630;SDS011;63138;55.082;38.804;2023-05-10T04:03:19;17.13;;;9.75;;
74630;SDS011;63138;55.082;38.804;2023-05-10T04:05:48;18.83;;;10.82;;
74630;SDS011;63138;55.082;38.804;2023-05-10T04:08:14;15.52;;;9.60;;
74630;SDS011;63138;55.082;38.804;2023-05-10T04:10:41;17.67;;;11.02;;
74630;SDS011;63138;55.082;38.804;2023-05-10T04:13:07;19.63;;;11.80;;
74630;SDS011;63138;55.082;38.804;2023-05-10T04:15:33;18.98;;;10.35;;
74630;SDS011;63138;55.082;38.804;2023-05-10T04:17:59;17.40;;;10.40;;
74630;SDS011;63138;55.082;38.804;2023-05-10T04:20:25;17.40;;;10.60;;
74630;SDS011;63138;55.082;38.804;2023-05-10T04:22:51;20.73;;;10.52;;
74630;SDS011;63138;55.082;38.804;2023-05-10T04:25:17;20.33;;;10.63;;
74630;SDS011;63138;55.082;38.804;2023-05-10T04:27:43;16.60;;;9.45;;
74630;SDS011;63138;55.082;38.804;2023-05-10T04:30:09;17.58;;;10.60;;
74630;SDS011;63138;55.082;38.804;2023-05-10T04:32:35;16.85;;;10.05;;
74630;SDS011;63138;55.082;38.804;2023-05-10T04:35:01;19.10;;;11.00;;
74630;SDS011;63138;55.082;38.804;2023-05-10T04:37:30;17.90;;;10.68;;
74630;SDS011;63138;55.082;38.804;2023-05-10T04:39:55;31.33;;;11.00;;
74630;SDS011;63138;55.082;38.804;2023-05-10T04:42:22;19.08;;;9.90;;
74630;SDS011;63138;55.082;38.804;2023-05-10T04:44:47;19.20;;;10.57;;
74630;SDS011;63138;55.082;38.804;2023-05-10T04:47:13;16.30;;;9.73;;
74630;SDS011;63138;55.082;38.804;2023-05-10T04:49:39;21.10;;;10.25;;
74630;SDS011;63138;55.082;38.804;2023-05-10T04:52:05;22.13;;;10.30;;
74630;SDS011;63138;55.082;38.804;2023-05-10T04:54:31;21.42;;;11.30;;
74630;SDS011;63138;55.082;38.804;2023-05-10T04:56:57;17.50;;;10.65;;
74630;SDS011;63138;55.082;38.804;2023-05-10T04:59:23;16.37;;;10.67;;
74630;SDS011;63138;55.082;38.804;2023-05-10T05:01:50;26.23;;;12.05;;
74630;SDS011;63138;55.082;38.804;2023-05-10T05:04:15;18.45;;;11.23;;
74630;SDS011;63138;55.082;38.804;2023-05-10T05:06:42;21.02;;;10.95;;
74630;SDS011;63138;55.082;38.804;2023-05-10T05:09:07;14.20;;;9.03;;
74630;SDS011;63138;55.082;38.804;2023-05-10T05:11:34;17.77;;;9.50;;
74630;SDS011;63138;55.082;38.804;2023-05-10T05:14:00;14.25;;;10.88;;
74630;SDS011;63138;55.082;38.804;2023-05-10T05:16:26;17.23;;;9.35;;
74630;SDS011;63138;55.082;38.804;2023-05-10T05:18:52;17.13;;;9.87;;
74630;SDS011;63138;55.082;38.804;2023-05-10T05:21:19;17.35;;;8.88;;
74630;SDS011;63138;55.082;38.804;2023-05-10T05:23:45;14.68;;;8.80;;
74630;SDS011;63138;55.082;38.804;2023-05-10T05:26:11;15.65;;;8.02;;
74630;SDS011;63138;55.082;38.804;2023-05-10T05:28:37;12.37;;;8.60;;
74630;SDS011;63138;55.082;38.804;2023-05-10T05:31:04;20.42;;;9.38;;
74630;SDS011;63138;55.082;38.804;2023-05-10T05:33:30;14.90;;;8.90;;
74630;SDS011;63138;55.082;38.804;2023-05-10T05:35:56;15.98;;;8.43;;
74630;SDS011;63138;55.082;38.804;2023-05-10T05:38:22;20.55;;;8.90;;
74630;SDS011;63138;55.082;38.804;2023-05-10T05:40:49;11.87;;;8.60;;
74630;SDS011;63138;55.082;38.804;2023-05-10T05:43:15;12.63;;;9.27;;
74630;SDS011;63138;55.082;38.804;2023-05-10T05:45:41;11.80;;;7.72;;
74630;SDS011;63138;55.082;38.804;2023-05-10T05:48:06;11.83;;;8.77;;
74630;SDS011;63138;55.082;38.804;2023-05-10T05:50:32;12.32;;;7.18;;
74630;SDS011;63138;55.082;38.804;2023-05-10T05:52:58;13.88;;;7.45;;
74630;SDS011;63138;55.082;38.804;2023-05-10T05:55:24;12.37;;;8.60;;
74630;SDS011;63138;55.082;38.804;2023-05-10T05:57:51;11.82;;;8.63;;
74630;SDS011;63138;55.082;38.804;2023-05-10T06:00:17;11.73;;;8.18;;
74630;SDS011;63138;55.082;38.804;2023-05-10T06:02:44;15.15;;;10.55;;
74630;SDS011;63138;55.082;38.804;2023-05-10T06:05:10;10.23;;;8.27;;
74630;SDS011;63138;55.082;38.804;2023-05-10T06:07:36;11.23;;;7.50;;
74630;SDS011;63138;55.082;38.804;2023-05-10T06:10:02;13.57;;;7.25;;
74630;SDS011;63138;55.082;38.804;2023-05-10T06:12:30;19.20;;;8.60;;
74630;SDS011;63138;55.082;38.804;2023-05-10T06:14:56;10.93;;;7.70;;
74630;SDS011;63138;55.082;38.804;2023-05-10T06:17:21;12.82;;;8.18;;
74630;SDS011;63138;55.082;38.804;2023-05-10T06:19:47;9.75;;;7.10;;
74630;SDS011;63138;55.082;38.804;2023-05-10T06:22:15;12.57;;;6.77;;
74630;SDS011;63138;55.082;38.804;2023-05-10T06:25:06;8.88;;;6.90;;
74630;SDS011;63138;55.082;38.804;2023-05-10T06:27:33;9.65;;;5.78;;
74630;SDS011;63138;55.082;38.804;2023-05-10T06:29:58;11.70;;;6.35;;
74630;SDS011;63138;55.082;38.804;2023-05-10T06:32:24;11.10;;;7.50;;
74630;SDS011;63138;55.082;38.804;2023-05-10T06:34:50;9.43;;;5.65;;
74630;SDS011;63138;55.082;38.804;2023-05-10T06:37:16;8.77;;;6.60;;
74630;SDS011;63138;55.082;38.804;2023-05-10T06:39:42;12.48;;;6.60;;
74630;SDS011;63138;55.082;38.804;2023-05-10T06:42:08;11.23;;;6.32;;
74630;SDS011;63138;55.082;38.804;2023-05-10T06:44:34;9.70;;;6.35;;
74630;SDS011;63138;55.082;38.804;2023-05-10T06:47:01;10.23;;;8.20;;
74630;SDS011;63138;55.082;38.804;2023-05-10T06:49:27;12.32;;;7.75;;
74630;SDS011;63138;55.082;38.804;2023-05-10T06:51:52;8.75;;;6.60;;
74630;SDS011;63138;55.082;38.804;2023-05-10T06:54:19;7.07;;;6.37;;
74630;SDS011;63138;55.082;38.804;2023-05-10T06:56:45;8.52;;;6.70;;
74630;SDS011;63138;55.082;38.804;2023-05-10T06:59:10;8.35;;;5.53;;
74630;SDS011;63138;55.082;38.804;2023-05-10T07:01:37;6.43;;;5.78;;
74630;SDS011;63138;55.082;38.804;2023-05-10T07:04:03;5.43;;;4.40;;
74630;SDS011;63138;55.082;38.804;2023-05-10T07:06:29;5.05;;;4.55;;
74630;SDS011;63138;55.082;38.804;2023-05-10T07:08:55;5.15;;;4.65;;
74630;SDS011;63138;55.082;38.804;2023-05-10T07:11:21;4.63;;;4.23;;
74630;SDS011;63138;55.082;38.804;2023-05-10T07:13:49;4.32;;;3.92;;
74630;SDS011;63138;55.082;38.804;2023-05-10T07:16:15;4.43;;;2.55;;
74630;SDS011;63138;55.082;38.804;2023-05-10T07:18:41;5.47;;;2.25;;
74630;SDS011;63138;55.082;38.804;2023-05-10T07:21:07;3.90;;;2.60;;
74630;SDS011;63138;55.082;38.804;2023-05-10T07:23:34;5.15;;;4.35;;
74630;SDS011;63138;55.082;38.804;2023-05-10T07:25:59;6.25;;;4.47;;
74630;SDS011;63138;55.082;38.804;2023-05-10T07:28:26;8.32;;;3.97;;
74630;SDS011;63138;55.082;38.804;2023-05-10T07:30:52;8.53;;;3.27;;
74630;SDS011;63138;55.082;38.804;2023-05-10T07:33:18;5.63;;;3.65;;
74630;SDS011;63138;55.082;38.804;2023-05-10T07:35:44;4.30;;;3.08;;
74630;SDS011;63138;55.082;38.804;2023-05-10T07:38:09;5.30;;;4.80;;
74630;SDS011;63138;55.082;38.804;2023-05-10T07:40:38;6.45;;;3.25;;
74630;SDS011;63138;55.082;38.804;2023-05-10T07:43:05;7.18;;;3.22;;
74630;SDS011;63138;55.082;38.804;2023-05-10T07:45:30;9.15;;;3.20;;
74630;SDS011;63138;55.082;38.804;2023-05-10T07:47:56;6.57;;;3.57;;
74630;SDS011;63138;55.082;38.804;2023-05-10T07:50:22;5.82;;;3.55;;
74630;SDS011;63138;55.082;38.804;2023-05-10T07:52:49;6.03;;;4.88;;
74630;SDS011;63138;55.082;38.804;2023-05-10T07:55:17;4.78;;;3.88;;
74630;SDS011;63138;55.082;38.804;2023-05-10T07:57:45;6.93;;;4.13;;
74630;SDS011;63138;55.082;38.804;2023-05-10T08:00:12;33.22;;;17.77;;
74630;SDS011;63138;55.082;38.804;2023-05-10T08:02:40;11.40;;;6.25;;
74630;SDS011;63138;55.082;38.804;2023-05-10T08:05:06;7.88;;;3.65;;
74630;SDS011;63138;55.082;38.804;2023-05-10T08:07:32;5.33;;;3.40;;
74630;SDS011;63138;55.082;38.804;2023-05-10T08:09:59;4.57;;;3.20;;
74630;SDS011;63138;55.082;38.804;2023-05-10T08:12:24;8.02;;;3.22;;
74630;SDS011;63138;55.082;38.804;2023-05-10T08:14:50;5.83;;;3.00;;
74630;SDS011;63138;55.082;38.804;2023-05-10T08:17:17;5.07;;;3.30;;
74630;SDS011;63138;55.082;38.804;2023-05-10T08:19:43;4.32;;;3.10;;
74630;SDS011;63138;55.082;38.804;2023-05-10T08:22:08;6.17;;;3.30;;
74630;SDS011;63138;55.082;38.804;2023-05-10T08:24:35;4.57;;;3.03;;
74630;SDS011;63138;55.082;38.804;2023-05-10T08:27:07;4.95;;;3.30;;
74630;SDS011;63138;55.082;38.804;2023-05-10T08:29:34;5.35;;;3.30;;
74630;SDS011;63138;55.082;38.804;2023-05-10T08:32:00;5.30;;;3.40;;
74630;SDS011;63138;55.082;38.804;2023-05-10T08:34:26;6.00;;;4.20;;
74630;SDS011;63138;55.082;38.804;2023-05-10T08:36:52;5.15;;;3.53;;
74630;SDS011;63138;55.082;38.804;2023-05-10T08:39:18;6.07;;;4.38;;
74630;SDS011;63138;55.082;38.804;2023-05-10T08:41:44;9.70;;;3.80;;
74630;SDS011;63138;55.082;38.804;2023-05-10T08:44:12;6.60;;;4.43;;
74630;SDS011;63138;55.082;38.804;2023-05-10T08:46:39;8.18;;;5.28;;
74630;SDS011;63138;55.082;38.804;2023-05-10T08:49:09;7.13;;;5.07;;
74630;SDS011;63138;55.082;38.804;2023-05-10T08:51:43;8.70;;;5.30;;
74630;SDS011;63138;55.082;38.804;2023-05-10T08:54:15;9.60;;;5.10;;
74630;SDS011;63138;55.082;38.804;2023-05-10T08:56:42;8.32;;;5.57;;
74630;SDS011;63138;55.082;38.804;2023-05-10T08:59:08;7.93;;;4.90;;
74630;SDS011;63138;55.082;38.804;2023-05-10T09:01:35;5.25;;;4.10;;
74630;SDS011;63138;55.082;38.804;2023-05-10T09:04:02;7.57;;;4.80;;
74630;SDS011;63138;55.082;38.804;2023-05-10T09:06:29;7.05;;;4.35;;
74630;SDS011;63138;55.082;38.804;2023-05-10T09:08:55;8.10;;;5.63;;
74630;SDS011;63138;55.082;38.804;2023-05-10T09:11:21;5.88;;;5.28;;
74630;SDS011;63138;55.082;38.804;2023-05-10T09:13:48;6.38;;;5.45;;
74630;SDS011;63138;55.082;38.804;2023-05-10T09:16:16;6.03;;;4.60;;
74630;SDS011;63138;55.082;38.804;2023-05-10T09:18:44;5.25;;;4.75;;
74630;SDS011;63138;55.082;38.804;2023-05-10T09:21:11;5.05;;;4.55;;
74630;SDS011;63138;55.082;38.804;2023-05-10T09:23:37;7.32;;;5.53;;
74630;SDS011;63138;55.082;38.804;2023-05-10T09:26:07;6.30;;;4.63;;
74630;SDS011;63138;55.082;38.804;2023-05-10T09:28:34;5.30;;;4.30;;
74630;SDS011;63138;55.082;38.804;2023-05-10T09:33:44;5.68;;;4.93;;
74630;SDS011;63138;55.082;38.804;2023-05-10T09:36:11;5.20;;;4.70;;
74630;SDS011;63138;55.082;38.804;2023-05-10T09:38:51;6.20;;;5.00;;
74630;SDS011;63138;55.082;38.804;2023-05-10T09:41:18;5.75;;;4.88;;
74630;SDS011;63138;55.082;38.804;2023-05-10T09:43:49;6.75;;;5.18;;
74630;SDS011;63138;55.082;38.804;2023-05-10T09:46:15;6.95;;;4.57;;
74630;SDS011;63138;55.082;38.804;2023-05-10T09:48:43;6.95;;;3.95;;
74630;SDS011;63138;55.082;38.804;2023-05-10T09:51:19;5.77;;;3.60;;
74630;SDS011;63138;55.082;38.804;2023-05-10T09:53:46;6.93;;;3.80;;
74630;SDS011;63138;55.082;38.804;2023-05-10T09:56:13;6.63;;;4.35;;
74630;SDS011;63138;55.082;38.804;2023-05-10T09:59:09;7.03;;;4.20;;
74630;SDS011;63138;55.082;38.804;2023-05-10T10:01:37;11.03;;;5.47;;
74630;SDS011;63138;55.082;38.804;2023-05-10T10:04:04;7.95;;;5.18;;
74630;SDS011;63138;55.082;38.804;2023-05-10T10:06:35;8.73;;;5.35;;
74630;SDS011;63138;55.082;38.804;2023-05-10T10:09:03;7.72;;;4.68;;
74630;SDS011;63138;55.082;38.804;2023-05-10T10:11:30;7.40;;;4.45;;
74630;SDS011;63138;55.082;38.804;2023-05-10T10:13:56;7.33;;;4.50;;
74630;SDS011;63138;55.082;38.804;2023-05-10T10:16:22;8.23;;;4.30;;
74630;SDS011;63138;55.082;38.804;2023-05-10T10:18:49;9.00;;;5.03;;
74630;SDS011;63138;55.082;38.804;2023-05-10T10:21:40;6.20;;;4.07;;
74630;SDS011;63138;55.082;38.804;2023-05-10T10:24:06;6.72;;;3.90;;
74630;SDS011;63138;55.082;38.804;2023-05-10T10:26:36;6.03;;;4.00;;
74630;SDS011;63138;55.082;38.804;2023-05-10T10:35:15;6.80;;;3.58;;
74630;SDS011;63138;55.082;38.804;2023-05-10T10:37:45;5.90;;;3.95;;
74630;SDS011;63138;55.082;38.804;2023-05-10T10:40:25;6.03;;;3.95;;
74630;SDS011;63138;55.082;38.804;2023-05-10T10:42:56;5.15;;;3.30;;
74630;SDS011;63138;55.082;38.804;2023-05-10T10:45:23;5.37;;;3.70;;
74630;SDS011;63138;55.082;38.804;2023-05-10T10:48:03;6.30;;;3.95;;
74630;SDS011;63138;55.082;38.804;2023-05-10T10:50:45;6.28;;;3.50;;
74630;SDS011;63138;55.082;38.804;2023-05-10T10:53:12;4.72;;;3.40;;
74630;SDS011;63138;55.082;38.804;2023-05-10T10:55:45;7.32;;;3.63;;
74630;SDS011;63138;55.082;38.804;2023-05-10T10:58:28;6.57;;;3.13;;
74630;SDS011;63138;55.082;38.804;2023-05-10T11:01:08;7.35;;;3.72;;
74630;SDS011;63138;55.082;38.804;2023-05-10T11:03:36;7.38;;;4.47;;
74630;SDS011;63138;55.082;38.804;2023-05-10T11:06:02;9.35;;;3.20;;
74630;SDS011;63138;55.082;38.804;2023-05-10T11:08:29;5.60;;;2.90;;
74630;SDS011;63138;55.082;38.804;2023-05-10T11:13:28;7.38;;;3.80;;
74630;SDS011;63138;55.082;38.804;2023-05-10T11:19:00;6.95;;;4.30;;
74630;SDS011;63138;55.082;38.804;2023-05-10T11:21:29;5.05;;;3.80;;
74630;SDS011;63138;55.082;38.804;2023-05-10T11:23:58;6.13;;;3.90;;
74630;SDS011;63138;55.082;38.804;2023-05-10T11:26:29;5.22;;;3.83;;
74630;SDS011;63138;55.082;38.804;2023-05-10T11:28:59;4.95;;;3.60;;
74630;SDS011;63138;55.082;38.804;2023-05-10T11:31:27;4.93;;;4.20;;
74630;SDS011;63138;55.082;38.804;2023-05-10T11:33:54;4.35;;;3.70;;
74630;SDS011;63138;55.082;38.804;2023-05-10T11:36:55;5.57;;;3.30;;
74630;SDS011;63138;55.082;38.804;2023-05-10T11:39:16;3.58;;;2.92;;
74630;SDS011;63138;55.082;38.804;2023-05-10T11:41:42;7.15;;;3.05;;
74630;SDS011;63138;55.082;38.804;2023-05-10T11:44:12;4.80;;;3.20;;
74630;SDS011;63138;55.082;38.804;2023-05-10T11:46:42;7.43;;;3.57;;
74630;SDS011;63138;55.082;38.804;2023-05-10T11:49:27;4.95;;;3.00;;
74630;SDS011;63138;55.082;38.804;2023-05-10T11:51:53;5.43;;;3.55;;
74630;SDS011;63138;55.082;38.804;2023-05-10T11:54:28;5.87;;;2.93;;
74630;SDS011;63138;55.082;38.804;2023-05-10T11:56:54;5.10;;;3.40;;
74630;SDS011;63138;55.082;38.804;2023-05-10T11:59:21;5.28;;;3.10;;
74630;SDS011;63138;55.082;38.804;2023-05-10T12:01:47;5.05;;;3.13;;
74630;SDS011;63138;55.082;38.804;2023-05-10T12:04:13;7.23;;;3.60;;
74630;SDS011;63138;55.082;38.804;2023-05-10T12:06:40;5.97;;;3.60;;
74630;SDS011;63138;55.082;38.804;2023-05-10T12:09:06;8.23;;;3.90;;
74630;SDS011;63138;55.082;38.804;2023-05-10T12:11:36;4.70;;;3.60;;
74630;SDS011;63138;55.082;38.804;2023-05-10T12:14:04;5.45;;;3.45;;
74630;SDS011;63138;55.082;38.804;2023-05-10T12:16:31;4.97;;;3.00;;
74630;SDS011;63138;55.082;38.804;2023-05-10T12:18:57;5.75;;;3.35;;
74630;SDS011;63138;55.082;38.804;2023-05-10T12:21:24;8.88;;;3.47;;
74630;SDS011;63138;55.082;38.804;2023-05-10T12:23:52;5.13;;;3.50;;
74630;SDS011;63138;55.082;38.804;2023-05-10T12:26:22;6.95;;;4.20;;
74630;SDS011;63138;55.082;38.804;2023-05-10T12:28:50;7.77;;;4.10;;
74630;SDS011;63138;55.082;38.804;2023-05-10T12:31:16;4.80;;;3.08;;
74630;SDS011;63138;55.082;38.804;2023-05-10T12:33:42;4.43;;;3.22;;
74630;SDS011;63138;55.082;38.804;2023-05-10T12:36:11;6.83;;;3.77;;
74630;SDS011;63138;55.082;38.804;2023-05-10T12:38:41;4.65;;;3.13;;
74630;SDS011;63138;55.082;38.804;2023-05-10T12:41:09;7.45;;;3.30;;
74630;SDS011;63138;55.082;38.804;2023-05-10T12:43:37;7.35;;;3.60;;
74630;SDS011;63138;55.082;38.804;2023-05-10T12:46:08;5.43;;;3.40;;
74630;SDS011;63138;55.082;38.804;2023-05-10T12:48:35;7.17;;;3.57;;
74630;SDS011;63138;55.082;38.804;2023-05-10T12:51:02;4.63;;;3.40;;
74630;SDS011;63138;55.082;38.804;2023-05-10T12:53:28;5.10;;;4.07;;
74630;SDS011;63138;55.082;38.804;2023-05-10T12:56:13;4.15;;;3.17;;
74630;SDS011;63138;55.082;38.804;2023-05-10T12:58:39;4.60;;;3.13;;
74630;SDS011;63138;55.082;38.804;2023-05-10T13:01:05;4.90;;;3.40;;
74630;SDS011;63138;55.082;38.804;2023-05-10T13:03:31;4.72;;;3.30;;
74630;SDS011;63138;55.082;38.804;2023-05-10T13:05:57;6.00;;;3.75;;
74630;SDS011;63138;55.082;38.804;2023-05-10T13:08:23;5.30;;;3.80;;
74630;SDS011;63138;55.082;38.804;2023-05-10T13:10:50;7.47;;;4.03;;
74630;SDS011;63138;55.082;38.804;2023-05-10T13:13:16;6.03;;;3.67;;
74630;SDS011;63138;55.082;38.804;2023-05-10T13:15:44;6.53;;;3.22;;
74630;SDS011;63138;55.082;38.804;2023-05-10T13:18:10;4.95;;;3.33;;
74630;SDS011;63138;55.082;38.804;2023-05-10T13:20:36;5.37;;;3.53;;
74630;SDS011;63138;55.082;38.804;2023-05-10T13:23:03;5.38;;;3.30;;
74630;SDS011;63138;55.082;38.804;2023-05-10T13:25:29;5.65;;;3.85;;
74630;SDS011;63138;55.082;38.804;2023-05-10T13:27:55;4.80;;;3.20;;
74630;SDS011;63138;55.082;38.804;2023-05-10T13:30:21;4.97;;;3.60;;
74630;SDS011;63138;55.082;38.804;2023-05-10T13:32:49;6.50;;;3.55;;
74630;SDS011;63138;55.082;38.804;2023-05-10T13:35:15;4.70;;;3.47;;
74630;SDS011;63138;55.082;38.804;2023-05-10T13:37:41;5.90;;;3.37;;
74630;SDS011;63138;55.082;38.804;2023-05-10T13:40:07;6.57;;;4.00;;
74630;SDS011;63138;55.082;38.804;2023-05-10T13:42:33;4.88;;;3.10;;
74630;SDS011;63138;55.082;38.804;2023-05-10T13:45:00;7.72;;;3.42;;
74630;SDS011;63138;55.082;38.804;2023-05-10T13:47:33;4.67;;;3.37;;
74630;SDS011;63138;55.082;38.804;2023-05-10T13:49:59;5.57;;;3.22;;
74630;SDS011;63138;55.082;38.804;2023-05-10T13:52:26;4.60;;;3.20;;
74630;SDS011;63138;55.082;38.804;2023-05-10T13:54:52;5.80;;;3.38;;
74630;SDS011;63138;55.082;38.804;2023-05-10T13:57:22;4.03;;;3.63;;
74630;SDS011;63138;55.082;38.804;2023-05-10T13:59:48;9.23;;;3.67;;
74630;SDS011;63138;55.082;38.804;2023-05-10T14:02:14;6.63;;;3.53;;
74630;SDS011;63138;55.082;38.804;2023-05-10T14:04:40;5.10;;;3.38;;
74630;SDS011;63138;55.082;38.804;2023-05-10T14:07:06;7.67;;;3.57;;
74630;SDS011;63138;55.082;38.804;2023-05-10T14:09:32;7.13;;;3.33;;
74630;SDS011;63138;55.082;38.804;2023-05-10T14:11:57;5.90;;;3.40;;
74630;SDS011;63138;55.082;38.804;2023-05-10T14:14:24;4.13;;;3.28;;
74630;SDS011;63138;55.082;38.804;2023-05-10T14:16:50;4.05;;;2.88;;
74630;SDS011;63138;55.082;38.804;2023-05-10T14:19:16;6.90;;;3.00;;
74630;SDS011;63138;55.082;38.804;2023-05-10T14:21:41;7.40;;;3.22;;
74630;SDS011;63138;55.082;38.804;2023-05-10T14:24:08;4.45;;;3.20;;
74630;SDS011;63138;55.082;38.804;2023-05-10T14:26:34;4.30;;;3.10;;
74630;SDS011;63138;55.082;38.804;2023-05-10T14:29:19;4.60;;;3.20;;
74630;SDS011;63138;55.082;38.804;2023-05-10T14:31:46;5.38;;;3.33;;
74630;SDS011;63138;55.082;38.804;2023-05-10T14:34:12;5.28;;;3.10;;
74630;SDS011;63138;55.082;38.804;2023-05-10T14:36:38;6.90;;;3.20;;
74630;SDS011;63138;55.082;38.804;2023-05-10T14:39:04;5.68;;;3.90;;
74630;SDS011;63138;55.082;38.804;2023-05-10T14:41:32;5.18;;;3.25;;
74630;SDS011;63138;55.082;38.804;2023-05-10T14:43:58;5.22;;;3.65;;
74630;SDS011;63138;55.082;38.804;2023-05-10T14:46:24;5.30;;;3.50;;
74630;SDS011;63138;55.082;38.804;2023-05-10T14:48:50;4.97;;;3.30;;
74630;SDS011;63138;55.082;38.804;2023-05-10T14:51:16;6.57;;;3.60;;
74630;SDS011;63138;55.082;38.804;2023-05-10T14:53:47;3.95;;;2.90;;
74630;SDS011;63138;55.082;38.804;2023-05-10T14:56:14;5.47;;;3.13;;
74630;SDS011;63138;55.082;38.804;2023-05-10T14:58:40;5.32;;;3.13;;
74630;SDS011;63138;55.082;38.804;2023-05-10T15:01:06;4.95;;;3.10;;
74630;SDS011;63138;55.082;38.804;2023-05-10T15:03:32;5.82;;;3.40;;
74630;SDS011;63138;55.082;38.804;2023-05-10T15:05:58;4.30;;;2.83;;
74630;SDS011;63138;55.082;38.804;2023-05-10T15:08:24;6.88;;;3.33;;